Pellston Regional Airport of Emmet County Airport Pellston US
ICAO: KPLN
IATA: PLN
Category: Medium
Scheduled Services: Yes

Elevation: 721 ft
TransAlt. 18000 ft.

Airport Communications:
ASOS:119.025
MINNEAPOLIS CNTR:134.6
LANSING RDO:122.2
CTAF/UNICOM:123

KPLN Zoom In..

If Map Doesn't Load, Click Here

Runways:

(A) RW 05 length 5401 ft width 150 ft
---- / hdg 51

(B) RW 14 length 6513 ft width 150 ft
---- / hdg 141

(C) RW 23 length 5401 ft width 150 ft
---- / hdg 231

(D) RW 32 length 6513 ft width 150 ft
ILS 111.30 / hdg 321

Location; KPLN
Day. 23 / Time. 07.54 Zulu
* Altimeter: 30.18
* Temperature: 11° c. 51.8°f.
* Wind from: 000° Speed 00 kn.
Dewpoint: 09° c.
Visibility: 10 Statute Miles.
Clouds: Overcast 9500 ft.

KPLN 230754Z AUTO 00000KT 10SM OVC095 11/09 A3018 RMK AO2 SLP221 T01060089


Wind - Calm.

 
 
jpsmedia.com for Web Design worldairports.se 2018   terms of use